Time;durP1;ratioP1;P1;durP2;ratioP2;P2;SDS_P1;SDS_P2;PMS_P1;PMS_P2;Temp;Humidity;BMP_temperature;BMP_pressure;BME280_temperature;BME280_humidity;BME280_pressure;Samples;Min_cycle;Max_cycle;Signal;HPM_P1;HPM_P2
2021/12/31 00:00:27;;;;;;;;;;;11.80;99.90;;;;;;6145618;23;20311;-82
2021/12/31 00:02:52;;;;;;;;;;;11.80;99.90;;;;;;6148108;23;19936;-83
2021/12/31 00:05:18;;;;;;;;;;;11.80;99.90;;;;;;6147354;23;19928;-83
2021/12/31 00:07:45;;;;;;;;;;;11.90;99.90;;;;;;6147269;23;19931;-81
2021/12/31 00:10:10;;;;;;;;;;;11.80;99.90;;;;;;6147162;23;19925;-87
2021/12/31 00:12:36;;;;;;;;;;;11.80;99.90;;;;;;6147244;23;19920;-87
2021/12/31 00:15:02;;;;;;;;;;;11.90;99.90;;;;;;6145886;23;19920;-82
2021/12/31 00:17:28;;;;;;;;;;;11.80;99.90;;;;;;6147701;23;20026;-86
2021/12/31 00:20:02;;;;;;;;;;;11.80;99.90;;;;;;6147624;23;19920;-84
2021/12/31 00:22:58;;;;;;;;;;;11.80;99.90;;;;;;6123003;23;19999;-81
2021/12/31 00:25:24;;;;;;;;;;;11.80;99.90;;;;;;6146807;23;19921;-82
2021/12/31 00:27:50;;;;;;;;;;;11.80;99.90;;;;;;6146810;23;19984;-86
2021/12/31 00:30:16;;;;;;;;;;;11.80;99.90;;;;;;6122387;23;20304;-84
2021/12/31 00:32:41;;;;;;;;;;;11.80;99.90;;;;;;6148031;23;19932;-81
2021/12/31 00:35:07;;;;;;;;;;;11.80;99.90;;;;;;6146561;23;20341;-84
2021/12/31 00:37:34;;;;;;;;;;;11.70;99.90;;;;;;6148166;23;19927;-85
2021/12/31 00:39:59;;;;;;;;;;;11.70;99.90;;;;;;6122563;23;19925;-84
2021/12/31 00:42:25;;;;;;;;;;;11.70;99.90;;;;;;6146546;23;19932;-83
2021/12/31 00:44:51;;;;;;;;;;;11.70;99.90;;;;;;6147570;23;20337;-84
2021/12/31 00:47:16;;;;;;;;;;;11.70;99.90;;;;;;6147545;23;19920;-84
2021/12/31 00:49:42;;;;;;;;;;;11.90;99.90;;;;;;6147186;23;19971;-84
2021/12/31 00:52:08;;;;;;;;;;;11.70;99.90;;;;;;6148683;23;19925;-81
2021/12/31 00:54:34;;;;;;;;;;;11.60;99.90;;;;;;6147683;23;19921;-84
2021/12/31 00:57:04;;;;;;;;;;;11.60;99.90;;;;;;6146516;23;20230;-83
2021/12/31 00:59:31;;;;;;;;;;;11.80;99.90;;;;;;6122876;23;19927;-84
2021/12/31 01:01:57;;;;;;;;;;;11.60;99.90;;;;;;6148432;23;20395;-88
2021/12/31 01:04:23;;;;;;;;;;;11.60;99.90;;;;;;6149398;23;19979;-84
2021/12/31 01:06:48;;;;;;;;;;;11.60;99.90;;;;;;6150124;23;20323;-86
2021/12/31 01:09:14;;;;;;;;;;;11.60;99.90;;;;;;6126651;23;19921;-84
2021/12/31 01:11:42;;;;;;;;;;;11.60;99.90;;;;;;6149894;23;19927;-83
2021/12/31 01:14:17;;;;;;;;;;;11.60;99.90;;;;;;6151799;23;19943;-85
2021/12/31 01:16:49;;;;;;;;;;;11.60;99.90;;;;;;6148629;23;20290;-86
2021/12/31 01:21:40;;;;;;;;;;;11.60;99.90;;;;;;6124815;23;19925;-82
2021/12/31 01:24:05;;;;;;;;;;;11.60;99.90;;;;;;6148721;23;20449;-82
2021/12/31 01:26:32;;;;;;;;;;;11.50;99.90;;;;;;6149042;23;19959;-82
2021/12/31 01:28:58;;;;;;;;;;;11.50;99.90;;;;;;6148975;23;19927;-84
2021/12/31 01:31:24;;;;;;;;;;;11.60;99.90;;;;;;6147825;23;20338;-81
2021/12/31 01:33:50;;;;;;;;;;;11.60;99.90;;;;;;6150047;23;20003;-86
2021/12/31 01:36:15;;;;;;;;;;;11.60;99.90;;;;;;6150074;23;20254;-84
2021/12/31 01:38:42;;;;;;;;;;;11.60;99.90;;;;;;6148829;23;19932;-87
2021/12/31 01:41:11;;;;;;;;;;;11.60;99.90;;;;;;6148877;23;20322;-82
2021/12/31 01:43:37;;;;;;;;;;;11.60;99.90;;;;;;6148691;23;19920;-82
2021/12/31 01:46:10;;;;;;;;;;;11.60;99.90;;;;;;6150060;23;19926;-83
2021/12/31 01:48:48;;;;;;;;;;;11.60;99.90;;;;;;6150493;23;19921;-84
2021/12/31 01:51:14;;;;;;;;;;;11.60;99.90;;;;;;6150883;23;19928;-84
2021/12/31 01:53:39;;;;;;;;;;;11.60;99.90;;;;;;6148341;23;19921;-81
2021/12/31 01:56:05;;;;;;;;;;;11.60;99.90;;;;;;6148898;23;20314;-84
2021/12/31 01:58:32;;;;;;;;;;;11.60;99.90;;;;;;6148654;23;19925;-81
2021/12/31 02:01:03;;;;;;;;;;;11.60;99.90;;;;;;6147872;23;19917;-83
2021/12/31 02:03:29;;;;;;;;;;;11.60;99.90;;;;;;6150799;23;19924;-81
2021/12/31 02:05:55;;;;;;;;;;;11.60;99.90;;;;;;6123595;23;19928;-79
2021/12/31 02:08:20;;;;;;;;;;;11.70;99.90;;;;;;6149495;23;20253;-82
2021/12/31 02:10:48;;;;;;;;;;;11.70;99.90;;;;;;6148063;23;19932;-80
2021/12/31 02:13:15;;;;;;;;;;;11.70;99.90;;;;;;6147345;23;20598;-80
2021/12/31 02:15:40;;;;;;;;;;;11.70;99.90;;;;;;6147739;23;19920;-82
2021/12/31 02:18:09;;;;;;;;;;;11.70;99.90;;;;;;6149528;23;19996;-83
2021/12/31 02:20:42;;;;;;;;;;;11.70;99.90;;;;;;6147407;23;19935;-82
2021/12/31 02:23:14;;;;;;;;;;;11.80;99.90;;;;;;6124608;23;19920;-80
2021/12/31 02:25:40;;;;;;;;;;;11.80;99.90;;;;;;6148154;23;19959;-80
2021/12/31 02:28:05;;;;;;;;;;;11.80;99.90;;;;;;6147732;23;19920;-80
2021/12/31 02:30:31;;;;;;;;;;;11.80;99.90;;;;;;6147716;23;19959;-82
2021/12/31 02:32:56;;;;;;;;;;;11.70;99.90;;;;;;6124337;23;19924;-82
2021/12/31 02:35:22;;;;;;;;;;;11.80;99.90;;;;;;6147546;23;20039;-81
2021/12/31 02:37:48;;;;;;;;;;;11.80;99.90;;;;;;6149096;23;20058;-81
2021/12/31 02:40:15;;;;;;;;;;;11.80;99.90;;;;;;6123423;23;19924;-82
2021/12/31 02:42:41;;;;;;;;;;;11.80;99.90;;;;;;6147530;23;20359;-83
2021/12/31 02:45:07;;;;;;;;;;;11.80;99.90;;;;;;6148169;23;19921;-83
2021/12/31 02:47:33;;;;;;;;;;;11.80;99.90;;;;;;6148977;23;19979;-83
2021/12/31 02:50:02;;;;;;;;;;;11.80;99.90;;;;;;6147337;23;19925;-80
2021/12/31 02:52:28;;;;;;;;;;;11.80;99.90;;;;;;6124042;23;19921;-82
2021/12/31 02:54:55;;;;;;;;;;;11.80;99.90;;;;;;6147203;23;19921;-85
2021/12/31 02:57:21;;;;;;;;;;;11.80;99.90;;;;;;6147855;23;19947;-83
2021/12/31 02:59:47;;;;;;;;;;;11.90;99.90;;;;;;6147603;23;20300;-84
2021/12/31 03:02:13;;;;;;;;;;;11.90;99.90;;;;;;6146817;23;20003;-83
2021/12/31 03:04:39;;;;;;;;;;;11.90;99.90;;;;;;6148640;23;19932;-81
2021/12/31 03:07:05;;;;;;;;;;;11.90;99.90;;;;;;6123714;23;19924;-82
2021/12/31 03:09:31;;;;;;;;;;;11.90;99.90;;;;;;6147694;23;19927;-82
2021/12/31 03:11:57;;;;;;;;;;;11.90;99.90;;;;;;6124138;23;19932;-79
2021/12/31 03:14:24;;;;;;;;;;;11.90;99.90;;;;;;6123907;23;19992;-81
2021/12/31 03:16:50;;;;;;;;;;;11.90;99.90;;;;;;6145943;23;19947;-81
2021/12/31 03:19:16;;;;;;;;;;;11.90;99.90;;;;;;6148857;23;20286;-81
2021/12/31 03:21:42;;;;;;;;;;;12.00;99.90;;;;;;6147550;23;19920;-81
2021/12/31 03:24:07;;;;;;;;;;;12.00;99.90;;;;;;6147458;23;19924;-81
2021/12/31 03:26:34;;;;;;;;;;;12.00;99.90;;;;;;6147208;23;20278;-81
2021/12/31 03:29:00;;;;;;;;;;;12.00;99.90;;;;;;6148307;23;19924;-80
2021/12/31 03:31:25;;;;;;;;;;;12.00;99.90;;;;;;6121498;23;20261;-80
2021/12/31 03:33:51;;;;;;;;;;;12.00;99.90;;;;;;6123934;23;19925;-81
2021/12/31 03:36:16;;;;;;;;;;;12.00;99.90;;;;;;6147897;23;19927;-81
2021/12/31 03:38:42;;;;;;;;;;;12.00;99.90;;;;;;6146920;23;19951;-82
2021/12/31 03:41:07;;;;;;;;;;;12.00;99.90;;;;;;6147080;23;19975;-80
2021/12/31 03:43:33;;;;;;;;;;;12.00;99.90;;;;;;6123216;23;19920;-80
2021/12/31 03:45:58;;;;;;;;;;;12.00;99.90;;;;;;6146838;23;19951;-80
2021/12/31 03:48:24;;;;;;;;;;;12.10;99.90;;;;;;6147641;23;19967;-80
2021/12/31 03:50:50;;;;;;;;;;;12.10;99.90;;;;;;6147843;23;20366;-81
2021/12/31 03:53:15;;;;;;;;;;;12.10;99.90;;;;;;6147371;23;19921;-80
2021/12/31 03:55:41;;;;;;;;;;;12.10;99.90;;;;;;6147305;23;20734;-80
2021/12/31 03:58:07;;;;;;;;;;;12.10;99.90;;;;;;6147230;23;19920;-81
2021/12/31 04:00:32;;;;;;;;;;;12.00;99.90;;;;;;6147227;23;19924;-79
2021/12/31 04:03:04;;;;;;;;;;;12.10;99.90;;;;;;6146329;23;20305;-82
2021/12/31 04:05:30;;;;;;;;;;;12.10;99.90;;;;;;6121407;23;19935;-82
2021/12/31 04:07:55;;;;;;;;;;;12.10;99.90;;;;;;6148046;23;19924;-82
2021/12/31 04:10:23;;;;;;;;;;;12.10;99.90;;;;;;6147364;23;20562;-84
2021/12/31 04:12:48;;;;;;;;;;;12.10;99.90;;;;;;6148586;23;19920;-81
2021/12/31 04:15:14;;;;;;;;;;;12.10;99.90;;;;;;6147220;23;20000;-82
2021/12/31 04:17:40;;;;;;;;;;;12.10;99.90;;;;;;6147063;23;19951;-81
2021/12/31 04:20:07;;;;;;;;;;;12.10;99.90;;;;;;6146634;23;19927;-83
2021/12/31 04:22:33;;;;;;;;;;;12.10;99.90;;;;;;6146637;23;20135;-83
2021/12/31 04:25:01;;;;;;;;;;;12.10;99.90;;;;;;6120494;23;20261;-84
2021/12/31 04:27:27;;;;;;;;;;;12.10;99.90;;;;;;6143810;23;19929;-83
2021/12/31 04:29:53;;;;;;;;;;;12.10;99.90;;;;;;6147288;23;19936;-85
2021/12/31 04:32:19;;;;;;;;;;;12.20;99.90;;;;;;6147069;23;19991;-83
2021/12/31 04:34:45;;;;;;;;;;;12.10;99.90;;;;;;6121539;23;20316;-84
2021/12/31 04:37:13;;;;;;;;;;;12.20;99.90;;;;;;6149050;23;19971;-82
2021/12/31 04:39:39;;;;;;;;;;;12.20;99.90;;;;;;6148966;23;19920;-82
2021/12/31 04:42:04;;;;;;;;;;;12.20;99.90;;;;;;6148418;23;19952;-82
2021/12/31 04:44:30;;;;;;;;;;;12.20;99.90;;;;;;6148537;23;20426;-84
2021/12/31 04:46:55;;;;;;;;;;;12.20;99.90;;;;;;6147418;23;19920;-85
2021/12/31 04:49:22;;;;;;;;;;;12.30;99.90;;;;;;6148241;23;20479;-83
2021/12/31 04:51:47;;;;;;;;;;;12.30;99.90;;;;;;6148923;23;20280;-82
2021/12/31 04:54:15;;;;;;;;;;;12.30;99.90;;;;;;6125255;23;19920;-81
2021/12/31 04:56:44;;;;;;;;;;;12.30;99.90;;;;;;6146942;23;20229;-80
2021/12/31 04:59:10;;;;;;;;;;;12.30;99.90;;;;;;6149531;23;19920;-81
2021/12/31 05:01:35;;;;;;;;;;;12.30;99.90;;;;;;6149386;23;19975;-83
2021/12/31 05:04:01;;;;;;;;;;;12.40;99.90;;;;;;6125249;23;19921;-81
2021/12/31 05:06:26;;;;;;;;;;;12.40;99.90;;;;;;6148619;23;19932;-82
2021/12/31 05:08:52;;;;;;;;;;;12.40;99.90;;;;;;6148790;23;19924;-84
2021/12/31 05:11:18;;;;;;;;;;;12.40;99.90;;;;;;6151437;23;20429;-84
2021/12/31 05:13:43;;;;;;;;;;;12.50;99.90;;;;;;6150959;23;19920;-84
2021/12/31 05:16:09;;;;;;;;;;;12.40;99.90;;;;;;6151851;23;19921;-82
2021/12/31 05:18:34;;;;;;;;;;;12.40;99.90;;;;;;6151953;23;20302;-83
2021/12/31 05:21:00;;;;;;;;;;;12.30;99.90;;;;;;6151010;23;19921;-83
2021/12/31 05:23:25;;;;;;;;;;;12.40;99.90;;;;;;6148677;23;19925;-85
2021/12/31 05:25:51;;;;;;;;;;;12.40;99.90;;;;;;6149301;23;19931;-83
2021/12/31 05:28:16;;;;;;;;;;;12.40;99.90;;;;;;6124412;23;19948;-84
2021/12/31 05:30:42;;;;;;;;;;;12.40;99.90;;;;;;6147377;23;19925;-83
2021/12/31 05:33:07;;;;;;;;;;;12.40;99.90;;;;;;6150440;23;20194;-83
2021/12/31 05:35:33;;;;;;;;;;;12.40;99.90;;;;;;6148324;23;19986;-85
2021/12/31 05:37:58;;;;;;;;;;;12.40;99.90;;;;;;6147356;23;19927;-81
2021/12/31 05:40:24;;;;;;;;;;;12.40;99.90;;;;;;6123852;23;19940;-80
2021/12/31 05:42:50;;;;;;;;;;;12.30;99.90;;;;;;6148685;23;19928;-84
2021/12/31 05:45:15;;;;;;;;;;;12.20;99.90;;;;;;6148412;23;19999;-81
2021/12/31 05:47:41;;;;;;;;;;;12.30;99.90;;;;;;6123345;23;19947;-81
2021/12/31 05:50:10;;;;;;;;;;;12.30;99.90;;;;;;6148683;23;19924;-82
2021/12/31 05:52:35;;;;;;;;;;;12.30;99.90;;;;;;6148115;23;19936;-81
2021/12/31 05:55:01;;;;;;;;;;;12.30;99.90;;;;;;6148644;23;19920;-82
2021/12/31 05:57:26;;;;;;;;;;;12.30;99.90;;;;;;6123445;23;19924;-82
2021/12/31 05:59:52;;;;;;;;;;;12.30;99.90;;;;;;6148249;23;19920;-82
2021/12/31 06:02:17;;;;;;;;;;;12.30;99.90;;;;;;6147818;23;19984;-85
2021/12/31 06:04:43;;;;;;;;;;;12.30;99.90;;;;;;6122491;23;19955;-84
2021/12/31 06:07:08;;;;;;;;;;;12.30;99.90;;;;;;6148523;23;20361;-85
2021/12/31 06:09:34;;;;;;;;;;;12.30;99.90;;;;;;6146550;23;19920;-81
2021/12/31 06:12:00;;;;;;;;;;;12.30;99.90;;;;;;6147393;23;20070;-84
2021/12/31 06:14:25;;;;;;;;;;;12.30;99.90;;;;;;6148828;23;19924;-84
2021/12/31 06:16:51;;;;;;;;;;;12.30;99.90;;;;;;6147494;23;19921;-83
2021/12/31 06:19:17;;;;;;;;;;;12.30;99.90;;;;;;6145616;23;19924;-82
2021/12/31 06:21:43;;;;;;;;;;;12.30;99.90;;;;;;6122898;23;20014;-82
2021/12/31 06:24:09;;;;;;;;;;;12.30;99.90;;;;;;6149084;23;20022;-83
2021/12/31 06:26:35;;;;;;;;;;;12.40;99.90;;;;;;6122223;23;19928;-85
2021/12/31 06:29:01;;;;;;;;;;;12.40;99.90;;;;;;6124422;23;19939;-84
2021/12/31 06:31:27;;;;;;;;;;;12.40;99.90;;;;;;6123089;23;20503;-80
2021/12/31 06:33:52;;;;;;;;;;;12.40;99.90;;;;;;6147997;23;19948;-80
2021/12/31 06:36:19;;;;;;;;;;;12.40;99.90;;;;;;6123472;23;20249;-83
2021/12/31 06:38:45;;;;;;;;;;;12.40;99.90;;;;;;6123889;23;19925;-84
2021/12/31 06:41:10;;;;;;;;;;;12.40;99.90;;;;;;6145858;23;20059;-82
2021/12/31 06:43:36;;;;;;;;;;;12.40;99.90;;;;;;6147579;23;19987;-85
2021/12/31 06:46:02;;;;;;;;;;;12.40;99.90;;;;;;6148804;23;19920;-83
2021/12/31 06:48:27;;;;;;;;;;;12.40;99.90;;;;;;6123026;23;20418;-83
2021/12/31 06:50:52;;;;;;;;;;;12.40;99.90;;;;;;6150469;23;19996;-85
2021/12/31 06:53:18;;;;;;;;;;;12.40;99.90;;;;;;6128170;23;20300;-83
2021/12/31 06:55:44;;;;;;;;;;;12.40;99.90;;;;;;6149895;23;20716;-81
2021/12/31 06:58:09;;;;;;;;;;;12.40;99.90;;;;;;6151475;23;19924;-84
2021/12/31 07:00:35;;;;;;;;;;;12.40;99.90;;;;;;6124065;23;19928;-82
2021/12/31 07:03:04;;;;;;;;;;;12.40;99.90;;;;;;6148526;23;19967;-81
2021/12/31 07:05:29;;;;;;;;;;;12.40;99.90;;;;;;6150201;23;20004;-82
2021/12/31 07:07:54;;;;;;;;;;;12.40;99.90;;;;;;6148478;23;19975;-83
2021/12/31 07:10:20;;;;;;;;;;;12.40;99.90;;;;;;6146534;23;19942;-82
2021/12/31 07:12:45;;;;;;;;;;;12.40;99.90;;;;;;6148778;23;19928;-84
2021/12/31 07:15:11;;;;;;;;;;;12.40;99.90;;;;;;6150901;23;19924;-84
2021/12/31 07:17:36;;;;;;;;;;;12.40;99.90;;;;;;6151046;23;19940;-82
2021/12/31 07:20:02;;;;;;;;;;;12.40;99.90;;;;;;6151917;23;20296;-85
2021/12/31 07:22:28;;;;;;;;;;;12.40;99.90;;;;;;6149943;23;19928;-84
2021/12/31 07:24:53;;;;;;;;;;;12.40;99.90;;;;;;6147695;23;19967;-84
2021/12/31 07:27:19;;;;;;;;;;;12.40;99.90;;;;;;6121230;23;19999;-84
2021/12/31 07:29:44;;;;;;;;;;;12.40;99.90;;;;;;6146243;23;19924;-86
2021/12/31 07:32:10;;;;;;;;;;;12.40;99.90;;;;;;6147011;23;20337;-85
2021/12/31 07:34:35;;;;;;;;;;;12.30;99.90;;;;;;6146082;23;19952;-84
2021/12/31 07:37:01;;;;;;;;;;;12.30;99.90;;;;;;6146269;23;20301;-83
2021/12/31 07:39:31;;;;;;;;;;;12.30;99.90;;;;;;6146389;23;19980;-84
2021/12/31 07:41:56;;;;;;;;;;;12.30;99.90;;;;;;6147514;23;19927;-82
2021/12/31 07:44:22;;;;;;;;;;;12.30;99.90;;;;;;6122309;23;20020;-86
2021/12/31 07:46:47;;;;;;;;;;;12.30;99.90;;;;;;6123328;23;20020;-84
2021/12/31 07:49:13;;;;;;;;;;;12.30;99.90;;;;;;6148190;23;19925;-85
2021/12/31 07:51:38;;;;;;;;;;;12.20;99.90;;;;;;6146548;23;19972;-82
2021/12/31 07:54:04;;;;;;;;;;;12.20;99.90;;;;;;6147512;23;19932;-83
2021/12/31 07:56:30;;;;;;;;;;;12.20;99.90;;;;;;6149038;23;19925;-84
2021/12/31 07:58:56;;;;;;;;;;;12.20;99.90;;;;;;6148602;23;19928;-86
2021/12/31 08:01:21;;;;;;;;;;;12.20;99.90;;;;;;6148779;23;19927;-84
2021/12/31 08:03:47;;;;;;;;;;;12.20;99.90;;;;;;6147313;23;20038;-82
2021/12/31 08:06:12;;;;;;;;;;;12.20;99.90;;;;;;6148793;23;19921;-85
2021/12/31 08:08:38;;;;;;;;;;;12.20;99.90;;;;;;6149252;23;19920;-83
2021/12/31 08:11:04;;;;;;;;;;;12.20;99.90;;;;;;6147012;23;19921;-82
2021/12/31 08:13:30;;;;;;;;;;;12.20;99.90;;;;;;6146197;23;19920;-86
2021/12/31 08:15:55;;;;;;;;;;;12.20;99.90;;;;;;6122029;23;19935;-84
2021/12/31 08:18:21;;;;;;;;;;;12.30;99.90;;;;;;6122376;23;19920;-83
2021/12/31 08:20:46;;;;;;;;;;;12.30;99.90;;;;;;6146925;23;19921;-84
2021/12/31 08:23:12;;;;;;;;;;;12.30;99.90;;;;;;6147975;23;19967;-86
2021/12/31 08:25:38;;;;;;;;;;;12.30;99.90;;;;;;6148060;23;19996;-86
2021/12/31 08:28:04;;;;;;;;;;;12.30;99.90;;;;;;6122394;23;19921;-84
2021/12/31 08:30:30;;;;;;;;;;;12.30;99.90;;;;;;6147235;23;20337;-86
2021/12/31 08:32:55;;;;;;;;;;;12.30;99.90;;;;;;6120543;23;19999;-84
2021/12/31 08:35:21;;;;;;;;;;;12.30;99.90;;;;;;6149065;23;20001;-85
2021/12/31 08:37:46;;;;;;;;;;;12.30;99.90;;;;;;6148078;23;19967;-82
2021/12/31 08:40:12;;;;;;;;;;;12.30;99.90;;;;;;6145784;23;19928;-84
2021/12/31 08:42:41;;;;;;;;;;;12.50;99.90;;;;;;6148564;23;19971;-85
2021/12/31 08:45:07;;;;;;;;;;;12.30;99.90;;;;;;6147798;23;19925;-85
2021/12/31 08:47:32;;;;;;;;;;;12.40;99.90;;;;;;6146515;23;19983;-85
2021/12/31 08:49:58;;;;;;;;;;;12.40;99.90;;;;;;6149051;23;19920;-88
2021/12/31 08:52:23;;;;;;;;;;;12.40;99.90;;;;;;6147539;23;19992;-85
2021/12/31 08:54:49;;;;;;;;;;;12.40;99.90;;;;;;6146575;23;19983;-88
2021/12/31 08:57:15;;;;;;;;;;;12.40;99.90;;;;;;6147469;23;19925;-88
2021/12/31 08:59:40;;;;;;;;;;;12.40;99.90;;;;;;6123464;23;19928;-86
2021/12/31 09:02:06;;;;;;;;;;;12.40;99.90;;;;;;6146177;23;20296;-89
2021/12/31 09:04:32;;;;;;;;;;;12.40;99.90;;;;;;6148919;23;19920;-87
2021/12/31 09:06:57;;;;;;;;;;;12.40;99.90;;;;;;6148320;23;20411;-84
2021/12/31 09:09:23;;;;;;;;;;;12.40;99.90;;;;;;6148194;23;19964;-85
2021/12/31 09:11:48;;;;;;;;;;;12.50;99.90;;;;;;6147610;23;19931;-87
2021/12/31 09:14:14;;;;;;;;;;;12.40;99.90;;;;;;6148895;23;20316;-85
2021/12/31 09:16:40;;;;;;;;;;;12.40;99.90;;;;;;6122306;23;19967;-90
2021/12/31 09:19:05;;;;;;;;;;;12.40;99.90;;;;;;6156209;23;19931;-89
2021/12/31 09:21:30;;;;;;;;;;;12.40;99.90;;;;;;6150917;23;19917;-87
2021/12/31 09:23:56;;;;;;;;;;;12.40;99.90;;;;;;6156788;23;19937;-89
2021/12/31 09:26:21;;;;;;;;;;;12.30;99.90;;;;;;6149273;23;19921;-86
2021/12/31 09:28:47;;;;;;;;;;;12.30;99.90;;;;;;6122972;23;19917;-87
2021/12/31 09:31:12;;;;;;;;;;;12.30;99.90;;;;;;6149612;23;19964;-85
2021/12/31 09:33:38;;;;;;;;;;;12.30;99.90;;;;;;6150249;23;20052;-87
2021/12/31 09:36:04;;;;;;;;;;;12.30;99.90;;;;;;6151625;23;19920;-90
2021/12/31 09:38:29;;;;;;;;;;;12.30;99.90;;;;;;6153917;23;19921;-88
2021/12/31 09:40:55;;;;;;;;;;;12.30;99.90;;;;;;6124488;23;19924;-88
2021/12/31 09:43:20;;;;;;;;;;;12.30;99.90;;;;;;6150412;23;19940;-88
2021/12/31 09:45:47;;;;;;;;;;;12.30;99.90;;;;;;6150391;23;19933;-82
2021/12/31 09:48:14;;;;;;;;;;;12.30;99.90;;;;;;6149682;23;20282;-83
2021/12/31 09:50:41;;;;;;;;;;;12.30;99.90;;;;;;6148789;23;20362;-85
2021/12/31 09:53:07;;;;;;;;;;;12.30;99.90;;;;;;6149309;23;19927;-87
2021/12/31 09:55:34;;;;;;;;;;;12.30;99.90;;;;;;6150453;23;19927;-88
2021/12/31 09:57:59;;;;;;;;;;;12.30;99.90;;;;;;6125219;23;19956;-84
2021/12/31 10:00:26;;;;;;;;;;;12.30;99.90;;;;;;6125785;23;20008;-85
2021/12/31 10:03:07;;;;;;;;;;;12.20;99.90;;;;;;6150230;23;19921;-84
2021/12/31 10:05:48;;;;;;;;;;;12.80;99.90;;;;;;6148619;23;19921;-87
2021/12/31 10:08:13;;;;;;;;;;;12.20;99.90;;;;;;6124854;23;19971;-84
2021/12/31 10:10:39;;;;;;;;;;;12.10;99.90;;;;;;6148144;23;19999;-87
2021/12/31 10:13:07;;;;;;;;;;;12.10;99.90;;;;;;6148395;23;19929;-88
2021/12/31 10:15:37;;;;;;;;;;;12.40;99.90;;;;;;6149272;23;19971;-85
2021/12/31 10:18:08;;;;;;;;;;;12.20;99.90;;;;;;6124354;23;20051;-85
2021/12/31 10:20:45;;;;;;;;;;;12.00;99.90;;;;;;6149737;23;19959;-83
2021/12/31 10:23:12;;;;;;;;;;;11.90;99.90;;;;;;6149175;23;19936;-87
2021/12/31 10:25:39;;;;;;;;;;;11.90;99.90;;;;;;6148500;23;19927;-85
2021/12/31 10:28:12;;;;;;;;;;;11.90;99.90;;;;;;6149044;23;19949;-89
2021/12/31 10:30:38;;;;;;;;;;;11.80;99.90;;;;;;6124870;23;19921;-88
2021/12/31 10:33:05;;;;;;;;;;;11.80;99.90;;;;;;6122971;23;19962;-85
2021/12/31 10:35:44;;;;;;;;;;;11.70;99.90;;;;;;6148377;23;19920;-83
2021/12/31 10:38:12;;;;;;;;;;;11.80;99.90;;;;;;6148769;23;19927;-84
2021/12/31 10:40:40;;;;;;;;;;;11.80;99.90;;;;;;6122522;23;19927;-85
2021/12/31 10:43:11;;;;;;;;;;;11.70;99.90;;;;;;6148880;23;19928;-85
2021/12/31 10:45:38;;;;;;;;;;;11.70;99.90;;;;;;6148216;23;19947;-82
2021/12/31 10:48:05;;;;;;;;;;;11.80;99.90;;;;;;6122362;23;19942;-82
2021/12/31 10:50:32;;;;;;;;;;;11.70;99.90;;;;;;6121122;23;19975;-83
2021/12/31 10:53:07;;;;;;;;;;;11.80;99.90;;;;;;6143983;23;19920;-82
2021/12/31 10:55:39;;;;;;;;;;;11.80;99.90;;;;;;6143738;23;19927;-84
2021/12/31 10:58:06;;;;;;;;;;;11.80;99.90;;;;;;6144393;23;19924;-85
2021/12/31 11:00:37;;;;;;;;;;;11.70;99.90;;;;;;6144373;23;20411;-84
2021/12/31 11:03:03;;;;;;;;;;;11.70;99.90;;;;;;6144068;23;19951;-85
2021/12/31 11:05:29;;;;;;;;;;;11.90;99.90;;;;;;6147370;23;20049;-86
2021/12/31 11:07:58;;;;;;;;;;;11.70;99.90;;;;;;6145452;23;19983;-86
2021/12/31 11:10:27;;;;;;;;;;;11.70;99.90;;;;;;6147225;23;19925;-85
2021/12/31 11:12:53;;;;;;;;;;;11.70;99.90;;;;;;6148421;23;20302;-85
2021/12/31 11:15:19;;;;;;;;;;;11.70;99.90;;;;;;6117730;23;19932;-84
2021/12/31 11:17:45;;;;;;;;;;;11.70;99.90;;;;;;6123367;23;19999;-83
2021/12/31 11:20:12;;;;;;;;;;;11.70;99.90;;;;;;6147773;23;20242;-83
2021/12/31 11:22:37;;;;;;;;;;;11.70;99.90;;;;;;6147177;23;20145;-83
2021/12/31 11:25:19;;;;;;;;;;;11.70;99.90;;;;;;6145851;23;19924;-81
2021/12/31 11:27:47;;;;;;;;;;;11.70;99.90;;;;;;6117714;23;19932;-81
2021/12/31 11:30:30;;;;;;;;;;;11.70;99.90;;;;;;6144651;23;19921;-82
2021/12/31 11:33:08;;;;;;;;;;;11.70;99.90;;;;;;6145629;23;20401;-82
2021/12/31 11:35:38;;;;;;;;;;;11.60;99.90;;;;;;6145016;23;19963;-82
2021/12/31 11:38:12;;;;;;;;;;;11.60;99.90;;;;;;6144210;23;20062;-83
2021/12/31 11:40:39;;;;;;;;;;;11.60;99.90;;;;;;6144946;23;20183;-81
2021/12/31 11:43:14;;;;;;;;;;;11.60;99.90;;;;;;6120315;23;19932;-82
2021/12/31 11:45:40;;;;;;;;;;;11.60;99.90;;;;;;6144429;23;19932;-83
2021/12/31 11:48:41;;;;;;;;;;;11.60;99.90;;;;;;6146479;23;19925;-84
2021/12/31 11:51:08;;;;;;;;;;;11.50;99.90;;;;;;6119731;23;19931;-82
2021/12/31 11:53:53;;;;;;;;;;;11.50;99.90;;;;;;6146856;23;19921;-81
2021/12/31 11:56:47;;;;;;;;;;;11.50;99.90;;;;;;6120519;23;19992;-82
2021/12/31 11:59:13;;;;;;;;;;;11.50;99.90;;;;;;6145663;23;19920;-84
2021/12/31 12:01:47;;;;;;;;;;;11.50;99.90;;;;;;6143299;23;20298;-85
2021/12/31 12:04:19;;;;;;;;;;;11.50;99.90;;;;;;6141353;23;20294;-86
2021/12/31 12:06:58;;;;;;;;;;;11.40;99.90;;;;;;6144632;23;19936;-89
2021/12/31 12:09:43;;;;;;;;;;;11.40;99.90;;;;;;6145195;23;19931;-87
2021/12/31 12:12:10;;;;;;;;;;;11.40;99.90;;;;;;6119863;23;20308;-87
2021/12/31 12:14:40;;;;;;;;;;;11.40;99.90;;;;;;6143904;23;20278;-89
2021/12/31 12:17:10;;;;;;;;;;;11.40;99.90;;;;;;6144679;23;19924;-86
2021/12/31 12:19:50;;;;;;;;;;;11.40;99.90;;;;;;6152057;23;19920;-84
2021/12/31 12:22:23;;;;;;;;;;;11.40;99.90;;;;;;6151426;23;19931;-85
2021/12/31 12:24:49;;;;;;;;;;;11.40;99.90;;;;;;6151702;23;20023;-92
2021/12/31 12:27:14;;;;;;;;;;;11.40;99.90;;;;;;6121158;23;20597;-88
2021/12/31 12:29:41;;;;;;;;;;;11.40;99.90;;;;;;6144791;23;19920;-86
2021/12/31 12:32:10;;;;;;;;;;;11.40;99.90;;;;;;6143727;23;20027;-84
2021/12/31 12:34:36;;;;;;;;;;;11.40;99.90;;;;;;6142346;23;20281;-85
2021/12/31 12:37:02;;;;;;;;;;;11.30;99.90;;;;;;6145045;23;19931;-85
2021/12/31 12:39:27;;;;;;;;;;;11.40;99.90;;;;;;6143235;23;19932;-86
2021/12/31 12:41:54;;;;;;;;;;;11.30;99.90;;;;;;6146317;23;19921;-87
2021/12/31 12:44:19;;;;;;;;;;;11.40;99.90;;;;;;6146158;23;19934;-83
2021/12/31 12:46:58;;;;;;;;;;;11.40;99.90;;;;;;6143761;23;19924;-86
2021/12/31 12:49:24;;;;;;;;;;;11.40;99.90;;;;;;6145262;23;19925;-86
2021/12/31 12:51:50;;;;;;;;;;;11.30;99.90;;;;;;6144939;23;19994;-89
2021/12/31 12:54:21;;;;;;;;;;;11.30;99.90;;;;;;6123692;23;19924;-92
2021/12/31 12:56:48;;;;;;;;;;;11.30;99.90;;;;;;6155659;23;19996;-93
2021/12/31 12:59:21;;;;;;;;;;;11.30;99.90;;;;;;6153319;23;19939;-89
2021/12/31 13:01:48;;;;;;;;;;;11.30;99.90;;;;;;6149801;23;19920;-88
2021/12/31 13:04:14;;;;;;;;;;;11.30;99.90;;;;;;6147898;23;19994;-89
2021/12/31 13:06:44;;;;;;;;;;;11.40;99.90;;;;;;6151549;23;19920;-86
2021/12/31 13:09:15;;;;;;;;;;;11.30;99.90;;;;;;6153545;23;20589;-91
2021/12/31 13:11:43;;;;;;;;;;;11.30;99.90;;;;;;6155578;23;19931;-86
2021/12/31 13:14:11;;;;;;;;;;;11.30;99.90;;;;;;6156133;23;20423;-88
2021/12/31 13:16:37;;;;;;;;;;;11.20;99.90;;;;;;6155926;23;19917;-87
2021/12/31 13:19:06;;;;;;;;;;;11.30;99.90;;;;;;6152952;23;19924;-89
2021/12/31 13:21:33;;;;;;;;;;;11.20;99.90;;;;;;6156361;23;19924;-87
2021/12/31 13:23:58;;;;;;;;;;;11.20;99.90;;;;;;6155677;23;19948;-87
2021/12/31 13:26:28;;;;;;;;;;;11.20;99.90;;;;;;6155495;23;19921;-84
2021/12/31 13:28:58;;;;;;;;;;;11.20;99.90;;;;;;6150803;23;20322;-86
2021/12/31 13:31:38;;;;;;;;;;;11.20;99.90;;;;;;6150807;23;19925;-87
2021/12/31 13:34:17;;;;;;;;;;;11.10;99.90;;;;;;6148820;23;20010;-86
2021/12/31 13:36:50;;;;;;;;;;;11.20;99.90;;;;;;6149564;23;19921;-89
2021/12/31 13:39:19;;;;;;;;;;;11.20;99.90;;;;;;6150586;23;19920;-84
2021/12/31 13:41:45;;;;;;;;;;;11.20;99.90;;;;;;6147508;23;19921;-86
2021/12/31 13:44:12;;;;;;;;;;;11.20;99.90;;;;;;6147371;23;19947;-90
2021/12/31 13:46:40;;;;;;;;;;;11.10;99.90;;;;;;6148459;23;20265;-85
2021/12/31 13:49:10;;;;;;;;;;;11.20;99.90;;;;;;6145889;23;20239;-87
2021/12/31 13:51:40;;;;;;;;;;;11.20;99.90;;;;;;6122902;23;19926;-87
2021/12/31 13:54:07;;;;;;;;;;;11.20;99.90;;;;;;6148103;23;19991;-90
2021/12/31 13:56:32;;;;;;;;;;;11.20;99.90;;;;;;6147471;23;19971;-88
2021/12/31 13:58:58;;;;;;;;;;;11.20;99.90;;;;;;6124659;23;19932;-85
2021/12/31 14:01:23;;;;;;;;;;;11.20;99.90;;;;;;6148161;23;19995;-87
2021/12/31 14:04:08;;;;;;;;;;;11.20;99.90;;;;;;6147152;23;20333;-86
2021/12/31 14:06:33;;;;;;;;;;;11.20;99.90;;;;;;6123229;23;19921;-88
2021/12/31 14:08:59;;;;;;;;;;;11.20;99.90;;;;;;6123643;23;19925;-87
2021/12/31 14:11:24;;;;;;;;;;;11.20;99.90;;;;;;6146992;23;20007;-83
2021/12/31 14:13:50;;;;;;;;;;;11.20;99.90;;;;;;6148348;23;20425;-87
2021/12/31 14:16:15;;;;;;;;;;;11.20;99.90;;;;;;6149694;23;20357;-83
2021/12/31 14:18:41;;;;;;;;;;;11.20;99.90;;;;;;6121834;23;19921;-85